Time;durP1;ratioP1;P1;durP2;ratioP2;P2;SDS_P1;SDS_P2;PMS_P1;PMS_P2;Temp;Humidity;BMP_temperature;BMP_pressure;BME280_temperature;BME280_humidity;BME280_pressure;Samples;Min_cycle;Max_cycle;Signal;HPM_P1;HPM_P2
2021/12/01 00:00:09;;;;;;;10.38;7.10;;;;;;;14.12;nan;100000.03;1033386;28;20033;-68
2021/12/01 00:00:39;;;;;;;12.80;8.25;;;;;;;14.11;nan;99998.31;1040456;28;20469;-68
2021/12/01 00:01:10;;;;;;;11.20;8.05;;;;;;;14.12;nan;99996.56;1040471;28;20538;-69
2021/12/01 00:01:40;;;;;;;11.02;7.78;;;;;;;14.10;nan;99990.53;1040713;28;20067;-68
2021/12/01 00:02:11;;;;;;;13.57;7.40;;;;;;;14.09;nan;99999.19;1040150;28;20021;-68
2021/12/01 00:02:41;;;;;;;13.88;8.15;;;;;;;14.11;nan;99985.34;1036481;28;20030;-68
2021/12/01 00:03:12;;;;;;;12.30;7.65;;;;;;;14.11;nan;99992.28;1032148;28;20039;-68
2021/12/01 00:03:42;;;;;;;10.43;7.35;;;;;;;14.11;nan;99981.91;1032212;28;20014;-67
2021/12/01 00:04:12;;;;;;;11.65;7.30;;;;;;;14.11;nan;99987.09;1036391;28;20044;-68
2021/12/01 00:04:43;;;;;;;12.48;7.28;;;;;;;14.11;nan;99987.09;1040293;28;20095;-67
2021/12/01 00:05:13;;;;;;;12.32;7.85;;;;;;;14.10;nan;99983.63;1044371;28;20479;-68
2021/12/01 00:05:43;;;;;;;12.00;7.60;;;;;;;14.11;nan;99984.50;1044539;28;20021;-67
2021/12/01 00:06:14;;;;;;;10.07;7.07;;;;;;;14.11;nan;99987.09;1044322;28;20021;-67
2021/12/01 00:06:44;;;;;;;9.75;7.50;;;;;;;14.10;nan;99983.63;1040043;28;20443;-69
2021/12/01 00:07:14;;;;;;;10.25;7.00;;;;;;;14.11;nan;99992.28;1040372;28;20028;-69
2021/12/01 00:07:45;;;;;;;10.43;6.82;;;;;;;14.12;nan;99986.19;1036346;28;20408;-69
2021/12/01 00:08:15;;;;;;;9.77;6.88;;;;;;;14.12;nan;99981.03;1032017;28;21229;-68
2021/12/01 00:08:45;;;;;;;10.50;7.00;;;;;;;14.11;nan;99974.16;1036377;28;20036;-69
2021/12/01 00:09:16;;;;;;;9.18;7.32;;;;;;;14.10;nan;99973.25;1030879;28;20037;-68
2021/12/01 00:09:46;;;;;;;10.77;6.80;;;;;;;14.11;nan;99981.91;1036335;28;20377;-69
2021/12/01 00:10:17;;;;;;;11.65;6.40;;;;;;;14.11;nan;99981.91;1040269;28;20025;-69
2021/12/01 00:10:48;;;;;;;11.95;6.95;;;;;;;14.11;nan;99976.72;1036269;28;20338;-69
2021/12/01 00:11:18;;;;;;;10.40;7.07;;;;;;;14.11;nan;99981.91;1036224;28;20401;-70
2021/12/01 00:11:48;;;;;;;10.10;6.80;;;;;;;14.12;nan;99976.72;1036486;28;20022;-68
2021/12/01 00:12:19;;;;;;;11.05;6.25;;;;;;;14.12;nan;99968.06;1032224;28;20018;-69
2021/12/01 00:12:49;;;;;;;10.98;6.47;;;;;;;14.11;nan;99974.16;1028223;28;20018;-69
2021/12/01 00:13:21;;;;;;;10.05;6.40;;;;;;;14.09;nan;99973.28;1029583;28;20022;-68
2021/12/01 00:13:51;;;;;;;9.15;6.10;;;;;;;14.09;nan;99968.09;1024536;28;20069;-69
2021/12/01 00:14:21;;;;;;;10.82;6.00;;;;;;;14.09;nan;99962.91;1028331;28;20034;-69
2021/12/01 00:14:52;;;;;;;10.57;6.63;;;;;;;14.09;nan;99963.75;1028177;28;20022;-69
2021/12/01 00:15:22;;;;;;;9.80;6.00;;;;;;;14.08;nan;99962.03;1028173;28;20034;-68
2021/12/01 00:15:52;;;;;;;8.40;5.82;;;;;;;14.08;nan;99968.97;1028160;28;20018;-69
2021/12/01 00:16:23;;;;;;;11.70;6.30;;;;;;;14.08;nan;99958.59;1031770;28;20006;-68
2021/12/01 00:16:53;;;;;;;10.05;6.05;;;;;;;14.06;nan;99952.56;1036298;28;20049;-69
2021/12/01 00:17:23;;;;;;;9.45;6.05;;;;;;;14.08;nan;99956.00;1032288;28;20014;-69
2021/12/01 00:17:54;;;;;;;9.75;5.78;;;;;;;14.04;nan;99957.75;1040394;28;20068;-69
2021/12/01 00:18:24;;;;;;;10.00;6.05;;;;;;;14.04;nan;99960.34;1044250;28;20507;-69
2021/12/01 00:18:54;;;;;;;8.40;5.90;;;;;;;14.03;nan;99953.44;1040345;28;20017;-69
2021/12/01 00:19:25;;;;;;;8.73;5.80;;;;;;;14.04;nan;99954.28;1035934;28;20018;-68
2021/12/01 00:19:55;;;;;;;8.63;5.65;;;;;;;14.04;nan;99954.28;1036110;28;20148;-68
2021/12/01 00:20:26;;;;;;;9.52;5.22;;;;;;;14.03;nan;99958.63;1036121;28;20033;-69
2021/12/01 00:20:57;;;;;;;9.70;5.70;;;;;;;14.03;nan;99957.75;1032359;28;20021;-69
2021/12/01 00:21:27;;;;;;;8.80;5.75;;;;;;;14.04;nan;99949.97;1040344;28;20473;-68
2021/12/01 00:21:57;;;;;;;8.15;5.38;;;;;;;14.03;nan;99942.22;1040285;28;20100;-68
2021/12/01 00:22:28;;;;;;;11.32;5.72;;;;;;;14.03;nan;99937.03;1036268;28;20030;-69
2021/12/01 00:22:59;;;;;;;10.48;5.88;;;;;;;14.03;nan;99942.22;1040302;28;20017;-69
2021/12/01 00:23:29;;;;;;;7.68;5.72;;;;;;;14.03;nan;99942.22;1031974;28;20484;-69
2021/12/01 00:23:59;;;;;;;8.68;5.35;;;;;;;14.03;nan;99942.22;1032675;28;20053;-69
2021/12/01 00:24:30;;;;;;;10.15;5.40;;;;;;;14.04;nan;99943.91;1040370;28;20013;-68
2021/12/01 00:25:00;;;;;;;8.93;5.20;;;;;;;14.02;nan;99940.50;1036283;28;20066;-69
2021/12/01 00:25:32;;;;;;;9.70;5.43;;;;;;;14.03;nan;99935.31;1040327;28;20048;-69
2021/12/01 00:26:03;;;;;;;10.93;5.72;;;;;;;14.04;nan;99933.56;1044556;28;20067;-69
2021/12/01 00:26:33;;;;;;;8.70;5.28;;;;;;;14.02;nan;99935.31;1031970;28;20081;-69
2021/12/01 00:27:04;;;;;;;10.13;5.93;;;;;;;14.03;nan;99929.28;1031660;28;20081;-68
2021/12/01 00:27:34;;;;;;;9.32;5.20;;;;;;;14.02;nan;99924.97;1028099;28;20026;-69
2021/12/01 00:28:05;;;;;;;6.32;4.82;;;;;;;14.01;nan;99929.25;1028047;28;20031;-69
2021/12/01 00:28:36;;;;;;;6.28;4.65;;;;;;;14.03;nan;99934.47;1040313;28;20045;-68
2021/12/01 00:29:06;;;;;;;7.00;4.63;;;;;;;14.02;nan;99941.34;1038936;28;20018;-69
2021/12/01 00:29:37;;;;;;;5.75;4.60;;;;;;;14.02;nan;99925.81;1034684;28;20066;-68
2021/12/01 00:30:08;;;;;;;8.75;4.88;;;;;;;14.03;nan;99926.69;1037627;28;20113;-69
2021/12/01 00:30:40;;;;;;;9.55;5.00;;;;;;;14.02;nan;99928.41;1032083;28;20018;-69
2021/12/01 00:31:10;;;;;;;8.63;4.75;;;;;;;14.02;nan;99928.41;1021018;28;20035;-69
2021/12/01 00:31:42;;;;;;;7.50;4.40;;;;;;;14.03;nan;99921.50;1024588;28;20038;-69
2021/12/01 00:32:12;;;;;;;8.00;4.40;;;;;;;14.03;nan;99916.31;1025091;28;20011;-68
2021/12/01 00:32:42;;;;;;;6.95;4.75;;;;;;;14.03;nan;99916.31;1032811;28;20440;-68
2021/12/01 00:33:14;;;;;;;7.93;4.65;;;;;;;14.02;nan;99919.78;1036229;28;20017;-68
2021/12/01 00:33:44;;;;;;;6.10;4.35;;;;;;;14.01;nan;99913.72;1036521;28;20014;-69
2021/12/01 00:34:16;;;;;;;5.85;4.28;;;;;;;14.01;nan;99910.28;1033515;28;20022;-68
2021/12/01 00:34:46;;;;;;;6.57;4.25;;;;;;;14.02;nan;99912.00;1032254;28;20098;-68
2021/12/01 00:35:16;;;;;;;6.63;4.65;;;;;;;14.00;nan;99905.97;1028565;28;20021;-69
2021/12/01 00:35:47;;;;;;;6.15;4.15;;;;;;;14.01;nan;99905.09;1028601;28;20031;-69
2021/12/01 00:36:17;;;;;;;6.30;4.15;;;;;;;14.00;nan;99908.56;1031772;28;20018;-69
2021/12/01 00:36:47;;;;;;;6.47;4.05;;;;;;;14.03;nan;99911.16;1032218;28;20068;-68
2021/12/01 00:37:18;;;;;;;6.22;4.30;;;;;;;14.03;nan;99916.31;1028135;28;20018;-68
2021/12/01 00:37:48;;;;;;;5.22;4.30;;;;;;;14.05;nan;99899.03;1028281;28;20390;-69
2021/12/01 00:38:19;;;;;;;7.13;4.55;;;;;;;14.01;nan;99898.19;1040336;28;20021;-68
2021/12/01 00:38:49;;;;;;;6.15;4.07;;;;;;;14.02;nan;99899.06;1036354;28;20064;-69
2021/12/01 00:39:19;;;;;;;6.53;4.07;;;;;;;14.02;nan;99893.88;1040261;28;20476;-68
2021/12/01 00:39:50;;;;;;;6.95;4.30;;;;;;;14.04;nan;99897.31;1036329;28;20022;-68
2021/12/01 00:40:20;;;;;;;6.25;4.05;;;;;;;14.02;nan;99883.53;1036256;28;20025;-69
2021/12/01 00:40:50;;;;;;;5.43;3.83;;;;;;;14.01;nan;99886.97;1036140;28;20444;-69
2021/12/01 00:41:22;;;;;;;5.65;3.90;;;;;;;14.01;nan;99893.00;1036240;28;20022;-68
2021/12/01 00:41:53;;;;;;;5.53;3.33;;;;;;;14.00;nan;99886.09;1036367;28;20018;-70
2021/12/01 00:42:23;;;;;;;5.45;3.90;;;;;;;14.00;nan;99885.25;1036138;28;20017;-68
2021/12/01 00:42:53;;;;;;;6.10;3.80;;;;;;;14.00;nan;99880.06;1032213;28;20014;-69
2021/12/01 00:43:25;;;;;;;5.72;4.15;;;;;;;13.99;nan;99873.16;1035846;28;20347;-68
2021/12/01 00:43:56;;;;;;;6.03;3.75;;;;;;;13.99;nan;99878.34;1039926;28;20432;-69
2021/12/01 00:44:29;;;;;;;6.47;3.53;;;;;;;13.99;nan;99878.34;1032420;28;20027;-68
2021/12/01 00:45:06;;;;;;;5.28;3.67;;;;;;;13.99;nan;99883.53;1037662;28;20052;-68
2021/12/01 00:45:37;;;;;;;5.63;3.58;;;;;;;13.98;nan;99877.50;1044441;28;20460;-68
2021/12/01 00:46:11;;;;;;;6.60;3.75;;;;;;;13.98;nan;99866.25;1044569;28;20476;-69
2021/12/01 00:46:45;;;;;;;6.93;4.07;;;;;;;13.98;nan;99872.31;1044327;28;20017;-68
2021/12/01 00:47:18;;;;;;;6.22;3.40;;;;;;;13.98;nan;99874.03;1044416;28;20096;-68
2021/12/01 00:47:52;;;;;;;6.05;3.58;;;;;;;13.96;nan;99869.72;1036230;28;20029;-69
2021/12/01 00:48:23;;;;;;;6.25;3.58;;;;;;;13.96;nan;99868.88;1038019;28;20678;-68
2021/12/01 00:48:54;;;;;;;6.43;3.70;;;;;;;13.95;nan;99869.72;1035991;28;20021;-68
2021/12/01 00:49:24;;;;;;;5.45;3.60;;;;;;;13.96;nan;99861.09;1037943;28;20033;-70
2021/12/01 00:49:54;;;;;;;5.03;3.60;;;;;;;13.94;nan;99861.13;1044446;28;20021;-68
2021/12/01 00:50:30;;;;;;;5.82;3.30;;;;;;;13.95;nan;99861.97;1040025;28;20384;-68
2021/12/01 00:51:00;;;;;;;6.72;3.50;;;;;;;13.93;nan;99864.56;1038670;28;20029;-69
2021/12/01 00:51:30;;;;;;;5.90;3.40;;;;;;;13.94;nan;99866.28;1040270;28;20056;-68
2021/12/01 00:52:01;;;;;;;6.05;3.15;;;;;;;13.96;nan;99864.53;1036759;28;20022;-68
2021/12/01 00:52:31;;;;;;;8.02;3.20;;;;;;;13.94;nan;99861.13;1040747;28;20029;-68
2021/12/01 00:53:04;;;;;;;6.00;3.30;;;;;;;13.93;nan;99854.22;1040314;28;20037;-69
2021/12/01 00:53:34;;;;;;;4.18;3.17;;;;;;;13.92;nan;99862.00;1032501;28;20036;-69
2021/12/01 00:54:05;;;;;;;5.90;3.28;;;;;;;13.91;nan;99855.94;1036283;28;20021;-69
2021/12/01 00:54:35;;;;;;;5.75;3.45;;;;;;;13.91;nan;99849.91;1036371;28;20022;-69
2021/12/01 00:55:06;;;;;;;4.47;3.30;;;;;;;13.90;nan;99849.03;1036201;28;20033;-68
2021/12/01 00:55:37;;;;;;;6.50;3.38;;;;;;;13.90;nan;99849.03;1044324;28;20017;-69
2021/12/01 00:56:07;;;;;;;3.78;2.78;;;;;;;13.90;nan;99858.53;1036258;28;20076;-70
2021/12/01 00:56:37;;;;;;;5.60;2.97;;;;;;;13.90;nan;99848.19;1028150;28;20027;-69
2021/12/01 00:57:08;;;;;;;4.93;3.08;;;;;;;13.90;nan;99851.63;1027997;28;20066;-68
2021/12/01 00:57:41;;;;;;;4.32;2.83;;;;;;;13.90;nan;99846.44;1028133;28;20023;-68
2021/12/01 00:58:12;;;;;;;5.35;3.20;;;;;;;13.89;nan;99847.31;1035947;28;20440;-69
2021/12/01 00:58:43;;;;;;;5.95;3.28;;;;;;;13.89;nan;99851.63;1036592;28;20357;-69
2021/12/01 00:59:13;;;;;;;6.22;3.00;;;;;;;13.90;nan;99854.22;1040249;28;20423;-69
2021/12/01 00:59:43;;;;;;;4.68;3.10;;;;;;;13.90;nan;99835.25;1040407;28;20021;-68
2021/12/01 01:00:14;;;;;;;5.75;3.22;;;;;;;13.89;nan;99836.97;1044477;28;20533;-69
2021/12/01 01:00:44;;;;;;;6.60;3.17;;;;;;;13.88;nan;99840.44;1040296;28;20071;-69
2021/12/01 01:01:15;;;;;;;4.20;3.20;;;;;;;13.87;nan;99838.72;1044222;28;20062;-69
2021/12/01 01:01:46;;;;;;;6.00;3.00;;;;;;;13.88;nan;99839.56;1040260;28;20376;-69
2021/12/01 01:02:16;;;;;;;3.90;2.92;;;;;;;13.89;nan;99836.97;1040452;28;20021;-69
2021/12/01 01:02:47;;;;;;;4.47;2.80;;;;;;;13.90;nan;99840.41;1040187;28;20017;-68
2021/12/01 01:03:17;;;;;;;5.13;3.00;;;;;;;13.90;nan;99838.69;1039472;28;20021;-69
2021/12/01 01:03:49;;;;;;;4.50;2.83;;;;;;;13.88;nan;99829.19;1036166;28;20017;-69
2021/12/01 01:04:19;;;;;;;4.00;2.70;;;;;;;13.88;nan;99840.44;1036255;28;20473;-69
2021/12/01 01:04:49;;;;;;;5.03;2.95;;;;;;;13.89;nan;99830.94;1036165;28;20018;-69
2021/12/01 01:05:20;;;;;;;4.95;2.83;;;;;;;13.86;nan;99826.63;1032470;28;20022;-69
2021/12/01 01:05:50;;;;;;;5.32;2.97;;;;;;;13.85;nan;99835.25;1040275;28;20017;-69
2021/12/01 01:06:20;;;;;;;4.57;2.53;;;;;;;13.86;nan;99831.81;1043582;28;20467;-69
2021/12/01 01:06:51;;;;;;;4.63;2.53;;;;;;;13.87;nan;99836.13;1048494;28;20024;-69
2021/12/01 01:07:21;;;;;;;3.47;2.50;;;;;;;13.87;nan;99827.47;1044632;28;20356;-68
2021/12/01 01:07:51;;;;;;;4.40;2.83;;;;;;;13.85;nan;99824.06;1040207;28;20028;-69
2021/12/01 01:08:22;;;;;;;4.40;2.70;;;;;;;13.86;nan;99829.22;1035936;28;20085;-69
2021/12/01 01:08:52;;;;;;;4.63;2.88;;;;;;;13.88;nan;99834.38;1032028;28;20412;-69
2021/12/01 01:09:27;;;;;;;4.50;3.00;;;;;;;13.87;nan;99827.47;1028055;28;20031;-69
2021/12/01 01:10:04;;;;;;;3.25;2.53;;;;;;;13.86;nan;99826.63;1033247;28;20010;-68
2021/12/01 01:11:10;;;;;;;3.45;2.70;;;;;;;13.85;nan;99824.06;1042293;28;20021;-69
2021/12/01 01:16:35;;;;;;;4.80;3.28;;;;;;;13.78;nan;99807.69;1040345;28;20165;-69
2021/12/01 01:17:08;;;;;;;4.35;3.10;;;;;;;13.79;nan;99817.19;1040279;28;20017;-68
2021/12/01 01:17:39;;;;;;;5.45;3.28;;;;;;;13.79;nan;99809.41;1036151;28;20014;-69
2021/12/01 01:18:10;;;;;;;3.90;3.05;;;;;;;13.79;nan;99807.66;1040981;28;20062;-68
2021/12/01 01:18:42;;;;;;;3.95;3.10;;;;;;;13.79;nan;99806.81;1036046;28;20021;-69
2021/12/01 01:19:13;;;;;;;5.35;3.33;;;;;;;13.78;nan;99813.72;1032812;28;20143;-69
2021/12/01 01:19:44;;;;;;;4.53;3.35;;;;;;;13.77;nan;99801.66;1036084;28;20481;-68
2021/12/01 01:20:14;;;;;;;4.10;3.50;;;;;;;13.78;nan;99805.09;1035905;28;20014;-68
2021/12/01 01:20:44;;;;;;;5.38;3.75;;;;;;;13.78;nan;99805.09;1036255;28;20014;-69
2021/12/01 01:21:15;;;;;;;4.78;3.90;;;;;;;13.76;nan;99799.06;1042751;28;20013;-69
2021/12/01 01:22:03;;;;;;;4.72;3.40;;;;;;;13.77;nan;99801.66;1044120;28;20020;-69
2021/12/01 01:22:33;;;;;;;5.32;3.50;;;;;;;13.75;nan;99786.97;1040217;28;20076;-69
2021/12/01 01:23:04;;;;;;;4.10;3.13;;;;;;;13.74;nan;99800.78;1036128;28;20087;-69
2021/12/01 01:23:35;;;;;;;4.75;3.40;;;;;;;13.75;nan;99799.91;1033554;28;20014;-70
2021/12/01 01:24:05;;;;;;;3.95;3.20;;;;;;;13.74;nan;99800.78;1040224;28;20096;-69
2021/12/01 01:24:36;;;;;;;5.65;3.50;;;;;;;13.74;nan;99798.19;1040216;28;20014;-68
2021/12/01 01:25:07;;;;;;;5.80;3.42;;;;;;;13.75;nan;99797.34;1040257;28;20013;-68
2021/12/01 01:25:37;;;;;;;4.43;3.10;;;;;;;13.74;nan;99785.25;1039969;28;20010;-68
2021/12/01 01:26:10;;;;;;;5.60;3.40;;;;;;;13.74;nan;99790.44;1035927;28;20068;-69
2021/12/01 01:26:40;;;;;;;3.85;2.80;;;;;;;13.73;nan;99784.41;1036529;28;20017;-69
2021/12/01 01:27:10;;;;;;;3.58;2.75;;;;;;;13.74;nan;99780.06;1033994;28;20021;-68
2021/12/01 01:27:41;;;;;;;3.83;2.72;;;;;;;13.73;nan;99778.38;1028163;28;20015;-69
2021/12/01 01:28:11;;;;;;;4.00;2.58;;;;;;;13.74;nan;99788.72;1023897;28;20034;-69
2021/12/01 01:28:42;;;;;;;4.20;2.60;;;;;;;13.73;nan;99788.75;1027862;28;20014;-69
2021/12/01 01:29:12;;;;;;;5.90;2.80;;;;;;;13.74;nan;99774.91;1036494;28;20017;-70
2021/12/01 01:29:43;;;;;;;4.38;2.53;;;;;;;13.74;nan;99775.78;1044422;28;20029;-69
2021/12/01 01:30:13;;;;;;;4.03;2.42;;;;;;;13.73;nan;99768.88;1048295;28;20024;-68
2021/12/01 01:30:43;;;;;;;3.90;2.58;;;;;;;13.72;nan;99780.09;1044320;28;20047;-69
2021/12/01 01:31:14;;;;;;;3.55;2.42;;;;;;;13.73;nan;99774.06;1040165;28;20013;-69
2021/12/01 01:31:45;;;;;;;4.35;2.40;;;;;;;13.73;nan;99773.22;1035953;28;20049;-70
2021/12/01 01:32:15;;;;;;;4.55;2.42;;;;;;;13.74;nan;99770.59;1031857;28;20022;-68
2021/12/01 01:32:45;;;;;;;3.80;2.38;;;;;;;13.73;nan;99775.78;1024113;28;20026;-68
2021/12/01 01:33:16;;;;;;;3.83;2.30;;;;;;;13.74;nan;99769.72;1028073;28;20090;-69
2021/12/01 01:33:47;;;;;;;3.65;2.05;;;;;;;13.73;nan;99762.84;1028096;28;20019;-68
2021/12/01 01:34:17;;;;;;;3.03;2.10;;;;;;;13.73;nan;99773.22;1031950;28;20528;-69
2021/12/01 01:34:47;;;;;;;4.18;2.67;;;;;;;13.72;nan;99766.31;1036084;28;20445;-69
2021/12/01 01:35:18;;;;;;;3.47;2.40;;;;;;;13.72;nan;99766.31;1036405;28;20029;-68
2021/12/01 01:35:49;;;;;;;3.40;2.28;;;;;;;13.73;nan;99773.22;1044442;28;20009;-69
2021/12/01 01:36:19;;;;;;;4.22;2.22;;;;;;;13.74;nan;99772.31;1044228;28;20446;-69
2021/12/01 01:36:50;;;;;;;3.10;2.13;;;;;;;13.73;nan;99758.53;1040144;28;20052;-69
2021/12/01 01:37:20;;;;;;;2.65;2.20;;;;;;;13.73;nan;99760.25;1039991;28;20010;-68
2021/12/01 01:37:51;;;;;;;4.05;2.10;;;;;;;13.74;nan;99759.38;1036159;28;20026;-68
2021/12/01 01:38:21;;;;;;;4.45;1.90;;;;;;;13.75;nan;99767.16;1031888;28;20056;-69
2021/12/01 01:38:51;;;;;;;2.17;1.83;;;;;;;13.75;nan;99771.44;1026121;28;20386;-70
2021/12/01 01:39:22;;;;;;;3.13;1.98;;;;;;;13.77;nan;99769.72;1027941;28;20078;-70
2021/12/01 01:39:52;;;;;;;3.58;1.90;;;;;;;13.75;nan;99758.50;1032201;28;20010;-69
2021/12/01 01:40:22;;;;;;;1.95;1.73;;;;;;;13.74;nan;99756.78;1040168;28;20010;-69
2021/12/01 01:40:53;;;;;;;3.20;1.80;;;;;;;13.75;nan;99761.09;1044277;28;20052;-70
2021/12/01 01:41:39;;;;;;;2.83;1.70;;;;;;;13.74;nan;99759.38;1044118;28;20013;-69
2021/12/01 01:42:09;;;;;;;2.38;1.90;;;;;;;13.74;nan;99749.00;1044263;28;20066;-68
2021/12/01 01:42:40;;;;;;;2.60;1.80;;;;;;;13.74;nan;99749.00;1044287;28;20017;-68
2021/12/01 01:43:10;;;;;;;3.03;1.80;;;;;;;13.74;nan;99749.00;1040034;28;20383;-69
2021/12/01 01:43:42;;;;;;;1.95;1.58;;;;;;;13.73;nan;99750.75;1032039;28;20493;-69
2021/12/01 01:44:12;;;;;;;2.78;1.95;;;;;;;13.74;nan;99749.91;1034160;28;20076;-70
2021/12/01 01:44:43;;;;;;;3.00;1.52;;;;;;;13.72;nan;99746.44;1032129;28;20011;-69
2021/12/01 01:45:13;;;;;;;3.05;1.88;;;;;;;13.75;nan;99742.97;1036196;28;20022;-68
2021/12/01 01:45:59;;;;;;;2.53;1.85;;;;;;;13.74;nan;99749.00;1040106;28;20017;-70
2021/12/01 01:46:33;;;;;;;1.65;1.23;;;;;;;13.74;nan;99742.13;1040558;28;20089;-71
2021/12/01 01:47:04;;;;;;;2.60;1.77;;;;;;;13.74;nan;99738.66;1040132;28;20019;-69
2021/12/01 01:47:35;;;;;;;2.45;1.48;;;;;;;13.74;nan;99741.25;1040166;28;20013;-69
2021/12/01 01:48:09;;;;;;;2.53;1.70;;;;;;;13.75;nan;99730.03;1036632;28;20075;-69
2021/12/01 01:48:48;;;;;;;3.22;1.80;;;;;;;13.75;nan;99730.03;1032960;28;20036;-69
2021/12/01 01:49:20;;;;;;;2.67;1.77;;;;;;;13.73;nan;99730.06;1039102;28;20021;-70
2021/12/01 01:49:58;;;;;;;2.78;1.63;;;;;;;13.74;nan;99723.13;1040114;28;20018;-69
2021/12/01 01:50:36;;;;;;;4.22;1.75;;;;;;;13.73;nan;99732.63;1040038;28;20512;-70
2021/12/01 01:51:06;;;;;;;1.95;1.70;;;;;;;13.74;nan;99728.31;1043771;28;20392;-70
2021/12/01 01:51:37;;;;;;;2.00;1.30;;;;;;;13.74;nan;99734.34;1038181;28;20445;-68
2021/12/01 01:52:07;;;;;;;2.28;1.40;;;;;;;13.74;nan;99736.06;1031880;28;20030;-69
2021/12/01 01:52:38;;;;;;;2.40;1.52;;;;;;;13.73;nan;99734.38;1027898;28;20046;-69
2021/12/01 01:53:10;;;;;;;2.58;1.48;;;;;;;13.74;nan;99723.13;1028052;28;20027;-70
2021/12/01 01:53:41;;;;;;;2.35;1.35;;;;;;;13.73;nan;99721.44;1028627;28;20023;-69
2021/12/01 01:54:11;;;;;;;2.30;1.45;;;;;;;13.73;nan;99721.44;1028323;28;20030;-69
2021/12/01 01:54:42;;;;;;;1.98;1.38;;;;;;;13.73;nan;99724.03;1027903;28;20030;-69
2021/12/01 01:55:12;;;;;;;1.92;1.25;;;;;;;13.73;nan;99726.63;1026122;28;20034;-69
2021/12/01 01:55:55;;;;;;;1.30;1.20;;;;;;;13.71;nan;99713.66;1028048;28;20060;-69
2021/12/01 01:56:26;;;;;;;2.00;1.42;;;;;;;13.72;nan;99722.31;1036013;28;20026;-69
2021/12/01 01:56:56;;;;;;;2.33;1.30;;;;;;;13.71;nan;99716.25;1033788;28;20027;-70
2021/12/01 01:57:26;;;;;;;1.98;1.40;;;;;;;13.71;nan;99718.00;1033626;28;20485;-69
2021/12/01 01:57:57;;;;;;;2.28;1.10;;;;;;;13.71;nan;99718.00;1031890;28;20034;-70
2021/12/01 01:58:27;;;;;;;2.60;1.30;;;;;;;13.69;nan;99719.72;1032017;28;20031;-69
2021/12/01 01:58:58;;;;;;;1.85;1.25;;;;;;;13.69;nan;99714.53;1036285;28;20022;-69
2021/12/01 01:59:28;;;;;;;1.92;1.23;;;;;;;13.68;nan;99718.00;1036238;28;20022;-69
2021/12/01 01:59:59;;;;;;;1.80;1.30;;;;;;;13.70;nan;99716.25;1040081;28;20024;-69
2021/12/01 02:00:29;;;;;;;1.75;1.30;;;;;;;13.70;nan;99713.69;1031990;28;20075;-69
2021/12/01 02:01:08;;;;;;;3.35;1.20;;;;;;;13.70;nan;99705.91;1036008;28;20022;-70
2021/12/01 02:02:12;;;;;;;1.33;1.20;;;;;;;13.67;nan;99711.09;1037687;28;20388;-69
2021/12/01 02:02:44;;;;;;;2.70;1.33;;;;;;;13.66;nan;99709.41;1036032;28;20488;-69
2021/12/01 02:03:14;;;;;;;2.10;1.20;;;;;;;13.67;nan;99703.34;1038396;28;20022;-68
2021/12/01 02:03:45;;;;;;;2.20;1.20;;;;;;;13.66;nan;99710.25;1034807;28;20038;-69
2021/12/01 02:04:17;;;;;;;1.63;1.10;;;;;;;13.67;nan;99714.56;1028092;28;20110;-69
2021/12/01 02:04:47;;;;;;;2.20;1.13;;;;;;;13.67;nan;99705.91;1030415;28;20022;-70
2021/12/01 02:05:17;;;;;;;1.52;1.20;;;;;;;13.68;nan;99710.22;1027873;28;20041;-69
2021/12/01 02:05:48;;;;;;;1.58;1.17;;;;;;;13.67;nan;99708.50;1031901;28;20477;-69
2021/12/01 02:06:22;;;;;;;2.00;1.08;;;;;;;13.67;nan;99706.78;1031983;28;20018;-69
2021/12/01 02:06:53;;;;;;;1.30;1.20;;;;;;;13.69;nan;99714.53;1031923;28;20029;-69
2021/12/01 02:07:23;;;;;;;1.70;1.00;;;;;;;13.68;nan;99712.81;1032570;28;20086;-69
2021/12/01 02:07:54;;;;;;;1.55;1.00;;;;;;;13.66;nan;99704.22;1032488;28;20038;-69
2021/12/01 02:08:37;;;;;;;1.10;1.00;;;;;;;13.66;nan;99704.22;1039717;28;20021;-69
2021/12/01 02:09:07;;;;;;;1.40;1.00;;;;;;;13.64;nan;99707.69;1040159;28;20442;-69
2021/12/01 02:09:37;;;;;;;1.20;1.00;;;;;;;13.67;nan;99692.97;1041728;28;20479;-69
2021/12/01 02:10:08;;;;;;;1.52;1.00;;;;;;;13.66;nan;99694.72;1048324;28;20066;-69
2021/12/01 02:10:38;;;;;;;1.67;1.02;;;;;;;13.67;nan;99706.78;1044090;28;20017;-69
2021/12/01 02:11:10;;;;;;;1.05;0.90;;;;;;;13.67;nan;99695.56;1036036;28;20022;-69
2021/12/01 02:11:41;;;;;;;1.33;0.85;;;;;;;13.67;nan;99695.56;1036081;28;20089;-68
2021/12/01 02:12:11;;;;;;;1.30;1.08;;;;;;;13.67;nan;99695.56;1031567;28;20026;-69
2021/12/01 02:12:41;;;;;;;1.90;1.10;;;;;;;13.67;nan;99690.38;1031987;28;20010;-69
2021/12/01 02:13:12;;;;;;;1.55;1.10;;;;;;;13.68;nan;99695.59;1027971;28;20081;-69
2021/12/01 02:13:42;;;;;;;1.75;1.23;;;;;;;13.69;nan;99691.25;1031975;28;20466;-70
2021/12/01 02:14:13;;;;;;;1.33;1.08;;;;;;;13.67;nan;99683.50;1035800;28;20069;-68
2021/12/01 02:14:43;;;;;;;1.27;0.80;;;;;;;13.67;nan;99690.38;1032015;28;20045;-69
2021/12/01 02:15:14;;;;;;;2.00;0.90;;;;;;;13.66;nan;99691.28;1032049;28;20089;-68
2021/12/01 02:15:44;;;;;;;1.88;1.00;;;;;;;13.67;nan;99680.03;1031923;28;20377;-68
2021/12/01 02:16:15;;;;;;;0.77;0.77;;;;;;;13.68;nan;99694.69;1035901;28;20141;-70
2021/12/01 02:16:45;;;;;;;1.98;0.85;;;;;;;13.69;nan;99686.06;1028133;28;20070;-69
2021/12/01 02:17:16;;;;;;;1.45;0.80;;;;;;;13.65;nan;99687.81;1028022;28;20377;-70
2021/12/01 02:17:46;;;;;;;1.63;0.77;;;;;;;13.67;nan;99680.03;1032120;28;20022;-69
2021/12/01 02:18:17;;;;;;;1.40;0.80;;;;;;;13.68;nan;99681.75;1027259;28;20027;-69
2021/12/01 02:18:47;;;;;;;1.20;0.90;;;;;;;13.71;nan;99689.53;1036210;28;20497;-69
2021/12/01 02:19:18;;;;;;;2.33;0.90;;;;;;;13.68;nan;99681.75;1035999;28;20018;-69
2021/12/01 02:19:51;;;;;;;1.13;0.90;;;;;;;13.70;nan;99685.22;1032077;28;20021;-69
2021/12/01 02:20:22;;;;;;;1.30;0.90;;;;;;;13.67;nan;99675.75;1028396;28;20015;-69
2021/12/01 02:21:02;;;;;;;0.88;0.80;;;;;;;13.70;nan;99675.69;1028483;28;20023;-68
2021/12/01 02:21:32;;;;;;;1.38;0.77;;;;;;;13.68;nan;99667.09;1033777;28;20023;-69
2021/12/01 02:22:03;;;;;;;1.23;0.73;;;;;;;13.68;nan;99676.59;1033413;28;20030;-70
2021/12/01 02:22:35;;;;;;;1.48;1.00;;;;;;;13.68;nan;99676.59;1039497;28;20032;-69
2021/12/01 02:23:05;;;;;;;1.40;0.80;;;;;;;13.68;nan;99671.41;1044275;28;20456;-69
2021/12/01 02:23:37;;;;;;;1.52;0.93;;;;;;;13.67;nan;99669.69;1036218;28;20453;-69
2021/12/01 02:24:09;;;;;;;1.20;0.90;;;;;;;13.65;nan;99661.94;1032015;28;20026;-69
2021/12/01 02:24:39;;;;;;;1.33;0.80;;;;;;;13.66;nan;99670.59;1027817;28;20014;-69
2021/12/01 02:25:10;;;;;;;1.25;0.75;;;;;;;13.66;nan;99655.06;1028698;28;20069;-69
2021/12/01 02:25:40;;;;;;;1.48;0.90;;;;;;;13.66;nan;99655.91;1032693;28;20022;-69
2021/12/01 02:26:11;;;;;;;0.65;0.65;;;;;;;13.67;nan;99659.34;1038146;28;20033;-69
2021/12/01 02:26:44;;;;;;;1.55;0.80;;;;;;;13.66;nan;99652.47;1035775;28;20014;-69
2021/12/01 02:27:14;;;;;;;0.80;0.70;;;;;;;13.66;nan;99652.47;1036539;28;20094;-70
2021/12/01 02:27:44;;;;;;;1.63;1.08;;;;;;;13.66;nan;99655.06;1040106;28;20060;-70
2021/12/01 02:28:15;;;;;;;0.95;0.80;;;;;;;13.67;nan;99656.75;1040281;28;20396;-69
2021/12/01 02:28:46;;;;;;;1.90;1.05;;;;;;;13.66;nan;99650.72;1040067;28;20017;-69
2021/12/01 02:29:19;;;;;;;1.00;0.90;;;;;;;13.66;nan;99647.28;1031876;28;20022;-69
2021/12/01 02:29:51;;;;;;;1.92;0.90;;;;;;;13.63;nan;99641.25;1031934;28;20386;-69
2021/12/01 02:30:23;;;;;;;1.02;0.70;;;;;;;13.63;nan;99638.66;1023886;29;20089;-69
2021/12/01 02:30:53;;;;;;;2.47;0.90;;;;;;;13.62;nan;99636.94;1024724;28;20047;-68
2021/12/01 02:31:28;;;;;;;2.33;0.93;;;;;;;13.64;nan;99645.56;1031928;28;20014;-70
2021/12/01 02:32:00;;;;;;;1.65;0.80;;;;;;;13.63;nan;99633.50;1030969;28;20025;-69
2021/12/01 02:32:30;;;;;;;3.40;0.90;;;;;;;13.64;nan;99630.03;1031895;28;20085;-68
2021/12/01 02:33:00;;;;;;;0.68;0.68;;;;;;;13.64;nan;99635.22;1032554;28;20085;-69
2021/12/01 02:33:31;;;;;;;1.38;0.88;;;;;;;13.63;nan;99633.50;1037677;28;20440;-68
2021/12/01 02:34:05;;;;;;;1.13;0.80;;;;;;;13.63;nan;99628.31;1044191;28;20463;-69
2021/12/01 02:34:38;;;;;;;0.63;0.60;;;;;;;13.63;nan;99633.50;1040648;28;20538;-69
2021/12/01 02:35:09;;;;;;;1.35;0.80;;;;;;;13.60;nan;99633.50;1044091;28;20017;-69
2021/12/01 02:35:39;;;;;;;1.17;0.70;;;;;;;13.64;nan;99631.75;1040124;28;20049;-69
2021/12/01 02:36:11;;;;;;;0.73;0.70;;;;;;;13.63;nan;99628.31;1035992;28;20085;-68